HADR/DIR METAR and TAF weather

Enter ICAO airport designator
Station Type Date Time Source
HADR METAR 2022/06/22 07:00 UTC NOAA

HADR 220700Z 18013KT 9999 SCT026 BKN060 26/16 Q1017 NOSIG


Station Type Date Time Source
HADR Decoded METAR 2022/06/22 07:00 UTC NOAA

Dire Dawa, Ethiopia (HADR) 09-36N 041-52E 1146M
Jun 22, 2022 - 03:00 AM EDT / 2022.06.22 0700 UTC
Wind: from the S (180 degrees) at 15 MPH (13 KT):0
Visibility: greater than 7 mile(s):0
Sky conditions: mostly cloudy
Temperature: 78 F (26 C)
Dew Point: 60 F (16 C)
Relative Humidity: 54%
Pressure (altimeter): 30.03 in. Hg (1017 hPa)
ob: HADR 220700Z 18013KT 9999 SCT026 BKN060 26/16 Q1017 NOSIG
cycle: 7

Station Type Date Time Source
HADR TAF 2022/12/09 18:20 UTC NOAA

TAF HADR 091530Z 0918/1024 18005KT 9999 FEW030 FEW090

Example: see airport list